Time;durP1;ratioP1;P1;durP2;ratioP2;P2;SDS_P1;SDS_P2;PMS_P1;PMS_P2;Temp;Humidity;BMP_temperature;BMP_pressure;BME280_temperature;BME280_humidity;BME280_pressure;Samples;Min_cycle;Max_cycle;Signal;HPM_P1;HPM_P2
2023/03/06 00:00:52;;;;;;;3.08;2.60;;;;;;;1.93;97.76;100018.38;6248388;22;20164;-70
2023/03/06 00:03:21;;;;;;;5.82;3.35;;;;;;;1.97;98.04;100005.50;6248488;22;20164;-70
2023/03/06 00:05:50;;;;;;;7.85;2.72;;;;;;;1.95;97.90;100000.34;6248461;22;20171;-69
2023/03/06 00:08:20;;;;;;;4.50;2.63;;;;;;;1.84;98.49;99999.88;6248280;22;20195;-73
2023/03/06 00:10:50;;;;;;;7.40;3.80;;;;;;;1.71;98.40;99995.03;6249461;22;20207;-72
2023/03/06 00:13:20;;;;;;;4.28;3.45;;;;;;;1.41;99.36;99993.00;6251123;22;20170;-71
2023/03/06 00:15:50;;;;;;;4.80;3.78;;;;;;;1.30;100.00;99991.50;6251462;22;20170;-71
2023/03/06 00:18:19;;;;;;;4.93;3.22;;;;;;;1.19;100.00;99990.00;6251161;22;20508;-72
2023/03/06 00:20:48;;;;;;;6.95;4.28;;;;;;;1.25;100.00;99989.34;6250510;22;20225;-72
2023/03/06 00:23:17;;;;;;;7.32;5.00;;;;;;;1.17;100.00;99983.97;6276451;22;20164;-71
2023/03/06 00:25:47;;;;;;;5.63;4.50;;;;;;;1.13;100.00;99984.47;6276405;22;20190;-72
2023/03/06 00:28:17;;;;;;;7.40;4.32;;;;;;;1.23;100.00;99986.00;6275716;22;20202;-71
2023/03/06 00:30:47;;;;;;;9.55;5.90;;;;;;;1.22;100.00;99976.31;6275818;22;20504;-71
2023/03/06 00:33:16;;;;;;;11.80;6.32;;;;;;;1.08;100.00;99974.31;6275274;22;20496;-70
2023/03/06 00:35:45;;;;;;;9.82;6.97;;;;;;;1.13;100.00;99968.47;6276162;22;20229;-72
2023/03/06 00:38:14;;;;;;;13.75;6.93;;;;;;;1.12;100.00;99969.47;6276854;22;20198;-71
2023/03/06 00:40:44;;;;;;;8.40;5.53;;;;;;;1.10;100.00;99967.00;6276109;22;20172;-73
2023/03/06 00:43:13;;;;;;;9.65;6.22;;;;;;;1.36;100.00;99963.34;6276267;22;20426;-71
2023/03/06 00:45:44;;;;;;;9.50;6.03;;;;;;;1.61;100.00;99962.34;6275348;22;20171;-72
2023/03/06 00:48:13;;;;;;;9.82;5.40;;;;;;;1.48;100.00;99951.38;6275772;22;20192;-70
2023/03/06 00:50:42;;;;;;;9.15;5.85;;;;;;;1.64;100.00;99938.88;6275535;22;20267;-71
2023/03/06 00:53:12;;;;;;;13.82;6.75;;;;;;;1.56;100.00;99940.69;6275866;22;20167;-71
2023/03/06 00:55:44;;;;;;;10.65;7.45;;;;;;;1.53;100.00;99930.38;6276502;22;20172;-72
2023/03/06 00:58:14;;;;;;;13.80;6.47;;;;;;;1.43;100.00;99937.69;6279834;22;20194;-71
2023/03/06 01:00:45;;;;;;;8.70;6.72;;;;;;;1.60;100.00;99926.84;6277630;22;20237;-71
2023/03/06 01:03:14;;;;;;;6.47;5.35;;;;;;;1.70;100.00;99929.34;6276546;22;20181;-70
2023/03/06 01:05:43;;;;;;;6.85;5.35;;;;;;;1.58;100.00;99920.03;6275762;22;20673;-72
2023/03/06 01:08:12;;;;;;;10.18;5.53;;;;;;;1.58;100.00;99904.88;6275077;22;20195;-72
2023/03/06 01:10:42;;;;;;;7.20;5.18;;;;;;;1.41;100.00;99897.03;6275193;22;20179;-70
2023/03/06 01:13:11;;;;;;;10.85;6.63;;;;;;;1.36;100.00;99891.38;6275189;22;20689;-70
2023/03/06 01:15:40;;;;;;;8.68;5.35;;;;;;;1.44;100.00;99894.06;6275105;22;20171;-70
2023/03/06 01:18:11;;;;;;;9.00;5.38;;;;;;;1.57;100.00;99886.38;6274874;22;20691;-71
2023/03/06 01:20:40;;;;;;;6.03;5.15;;;;;;;1.45;100.00;99877.91;6276134;22;20492;-70
2023/03/06 01:23:09;;;;;;;10.98;5.85;;;;;;;1.61;100.00;99871.69;6250061;22;20259;-71
2023/03/06 01:25:38;;;;;;;7.28;5.15;;;;;;;1.54;100.00;99860.06;6249499;22;20191;-71
2023/03/06 01:28:07;;;;;;;6.88;4.85;;;;;;;1.64;100.00;99866.03;6276462;22;20233;-72
2023/03/06 01:30:36;;;;;;;6.22;4.43;;;;;;;1.57;100.00;99857.03;6249080;22;20184;-71
2023/03/06 01:33:06;;;;;;;11.48;4.70;;;;;;;1.41;100.00;99851.72;6249431;22;20639;-71
2023/03/06 01:35:38;;;;;;;7.20;5.47;;;;;;;1.37;100.00;99850.41;6249201;22;20167;-71
2023/03/06 01:38:08;;;;;;;6.20;5.22;;;;;;;1.47;100.00;99843.88;6249012;22;20184;-70
2023/03/06 01:40:37;;;;;;;6.00;5.40;;;;;;;1.67;100.00;99839.00;6276214;22;20148;-70
2023/03/06 01:43:11;;;;;;;6.68;5.82;;;;;;;1.64;100.00;99834.03;6249106;22;20245;-72
2023/03/06 01:46:17;;;;;;;8.93;5.10;;;;;;;1.47;100.00;99827.88;6249166;22;20171;-72
2023/03/06 01:48:48;;;;;;;8.20;5.57;;;;;;;1.54;100.00;99833.38;6276167;22;20194;-70
2023/03/06 01:51:19;;;;;;;8.40;6.03;;;;;;;1.62;100.00;99825.34;6249196;22;20233;-71
2023/03/06 01:53:50;;;;;;;8.40;6.38;;;;;;;1.49;100.00;99822.41;6249192;22;20175;-70
2023/03/06 01:56:20;;;;;;;10.93;7.35;;;;;;;1.63;100.00;99817.19;6249122;22;20222;-71
2023/03/06 01:58:50;;;;;;;9.90;6.82;;;;;;;1.67;100.00;99815.00;6248985;22;20245;-70
2023/03/06 02:01:20;;;;;;;10.60;8.40;;;;;;;1.65;100.00;99817.84;6249051;22;20170;-71
2023/03/06 02:03:50;;;;;;;12.95;8.73;;;;;;;1.63;100.00;99805.69;6249010;22;20198;-70
2023/03/06 02:06:21;;;;;;;13.90;8.57;;;;;;;1.82;100.00;99807.97;6248967;22;20167;-71
2023/03/06 02:08:52;;;;;;;22.17;9.73;;;;;;;1.90;100.00;99804.41;6248944;22;20214;-71
2023/03/06 02:11:22;;;;;;;12.25;8.65;;;;;;;1.86;100.00;99808.44;6275982;22;20176;-71
2023/03/06 02:13:53;;;;;;;8.88;7.20;;;;;;;1.81;100.00;99802.78;6249734;22;20183;-70
2023/03/06 02:16:26;;;;;;;12.95;7.75;;;;;;;2.02;100.00;99793.22;6250787;22;20160;-71
2023/03/06 02:18:56;;;;;;;10.13;6.35;;;;;;;2.13;100.00;99798.16;6249530;22;20174;-72
2023/03/06 02:21:30;;;;;;;13.50;7.90;;;;;;;2.09;100.00;99793.31;6256780;22;20179;-71
2023/03/06 02:24:22;;;;;;;11.98;7.03;;;;;;;2.17;100.00;99790.63;6274526;22;20158;-72
2023/03/06 02:26:54;;;;;;;11.85;6.70;;;;;;;2.21;100.00;99791.13;6274351;22;20184;-71
2023/03/06 02:29:27;;;;;;;7.53;6.18;;;;;;;2.19;100.00;99788.59;6275033;22;20205;-70
2023/03/06 02:31:59;;;;;;;10.63;6.13;;;;;;;2.23;100.00;99787.25;6273984;22;20183;-71
2023/03/06 02:35:00;;;;;;;8.82;6.55;;;;;;;2.17;100.00;99780.81;6274673;22;20172;-74
2023/03/06 02:37:29;;;;;;;8.45;6.20;;;;;;;2.14;100.00;99783.78;6274445;22;20183;-71
2023/03/06 02:40:08;;;;;;;10.82;7.05;;;;;;;2.07;100.00;99777.50;6274392;22;20164;-72
2023/03/06 02:42:45;;;;;;;8.38;6.13;;;;;;;2.09;100.00;99770.16;6274247;22;20189;-70
2023/03/06 02:45:19;;;;;;;9.43;6.90;;;;;;;2.12;100.00;99774.31;6275046;22;20171;-72
2023/03/06 02:47:48;;;;;;;9.77;7.10;;;;;;;2.21;100.00;99764.41;6274783;22;20192;-71
2023/03/06 02:50:17;;;;;;;9.73;5.95;;;;;;;2.17;100.00;99775.47;6274446;22;20164;-72
2023/03/06 02:52:48;;;;;;;8.90;5.97;;;;;;;2.16;100.00;99767.63;6274762;22;20173;-71
2023/03/06 02:55:17;;;;;;;10.80;6.45;;;;;;;2.20;100.00;99755.59;6276301;22;20635;-70
2023/03/06 02:57:47;;;;;;;8.43;6.10;;;;;;;2.13;100.00;99752.78;6274725;22;20566;-71
2023/03/06 03:00:18;;;;;;;8.25;6.60;;;;;;;2.22;100.00;99761.59;6274697;22;20167;-70
2023/03/06 03:02:47;;;;;;;10.65;6.70;;;;;;;2.31;100.00;99755.19;6274339;22;20167;-71
2023/03/06 03:05:17;;;;;;;9.65;6.25;;;;;;;2.30;100.00;99755.34;6274065;22;20246;-71
2023/03/06 03:07:50;;;;;;;10.10;6.43;;;;;;;2.23;100.00;99754.41;6274093;22;20183;-70
2023/03/06 03:10:20;;;;;;;11.75;6.25;;;;;;;2.31;100.00;99751.69;6273922;22;20485;-71
2023/03/06 03:12:52;;;;;;;10.57;7.57;;;;;;;2.38;100.00;99744.63;6274343;22;20187;-72
2023/03/06 03:15:21;;;;;;;10.30;6.80;;;;;;;2.35;100.00;99747.66;6274344;22;20198;-70
2023/03/06 03:17:50;;;;;;;8.48;5.68;;;;;;;2.30;100.00;99744.69;6273705;22;20191;-71
2023/03/06 03:20:21;;;;;;;11.23;6.90;;;;;;;2.32;100.00;99742.69;6274328;22;20187;-70
2023/03/06 03:22:53;;;;;;;6.15;4.70;;;;;;;2.33;100.00;99744.31;6274684;22;20174;-70
2023/03/06 03:25:24;;;;;;;8.43;5.03;;;;;;;2.43;100.00;99739.56;6274160;22;20171;-71
2023/03/06 03:27:58;;;;;;;15.88;5.43;;;;;;;2.48;100.00;99738.03;6274231;22;20188;-71
2023/03/06 03:30:27;;;;;;;7.72;5.40;;;;;;;2.49;100.00;99734.34;6275918;22;20168;-72
2023/03/06 03:32:56;;;;;;;8.60;5.40;;;;;;;2.47;100.00;99736.38;6276485;22;20187;-72
2023/03/06 03:35:26;;;;;;;6.55;5.55;;;;;;;2.49;100.00;99736.19;6274652;22;20491;-72
2023/03/06 03:37:56;;;;;;;10.13;5.47;;;;;;;2.47;100.00;99738.22;6274288;22;20262;-70
2023/03/06 03:40:26;;;;;;;6.10;5.05;;;;;;;2.50;100.00;99736.03;6273743;22;20175;-70
2023/03/06 03:42:57;;;;;;;6.47;5.43;;;;;;;2.51;100.00;99740.38;6274356;22;20500;-71
2023/03/06 03:45:26;;;;;;;8.27;4.75;;;;;;;2.53;100.00;99733.00;6276349;22;20167;-70
2023/03/06 03:47:55;;;;;;;9.25;5.30;;;;;;;2.45;100.00;99740.25;6276086;22;20274;-70
2023/03/06 03:50:25;;;;;;;5.00;4.00;;;;;;;2.41;100.00;99750.44;6276321;22;20225;-71
2023/03/06 03:52:55;;;;;;;7.38;5.28;;;;;;;2.49;100.00;99765.56;6275921;22;20655;-70
2023/03/06 03:55:24;;;;;;;9.30;5.68;;;;;;;2.31;100.00;99765.03;6276153;22;20171;-71
2023/03/06 03:57:53;;;;;;;6.47;4.13;;;;;;;2.25;100.00;99757.72;6276326;22;20211;-70
2023/03/06 04:00:24;;;;;;;9.57;4.43;;;;;;;2.07;100.00;99772.19;6275924;22;20234;-71
2023/03/06 04:03:05;;;;;;;11.05;5.47;;;;;;;2.05;100.00;99757.34;6275911;22;20168;-70
2023/03/06 04:05:38;;;;;;;4.65;4.00;;;;;;;1.83;100.00;99764.28;6275802;22;20163;-70
2023/03/06 04:08:13;;;;;;;3.70;3.35;;;;;;;1.69;100.00;99770.34;6275203;22;20667;-71
2023/03/06 04:10:44;;;;;;;4.10;3.25;;;;;;;1.60;100.00;99766.84;6276192;22;20475;-71
2023/03/06 04:13:16;;;;;;;5.90;3.30;;;;;;;1.69;100.00;99775.69;6276185;22;20167;-70
2023/03/06 04:15:48;;;;;;;3.55;3.03;;;;;;;1.57;100.00;99764.53;6276343;22;20546;-72
2023/03/06 04:18:17;;;;;;;3.35;3.05;;;;;;;1.45;100.00;99760.59;6276868;22;20191;-71
2023/03/06 04:20:47;;;;;;;3.72;2.50;;;;;;;1.41;100.00;99758.41;6275664;22;20270;-71
2023/03/06 04:23:17;;;;;;;4.25;2.90;;;;;;;1.44;100.00;99774.09;6249842;22;20196;-70
2023/03/06 04:25:47;;;;;;;3.47;2.35;;;;;;;1.34;100.00;99773.44;6249744;22;20616;-71
2023/03/06 04:28:16;;;;;;;2.45;1.95;;;;;;;1.28;100.00;99769.63;6249805;22;20191;-72
2023/03/06 04:30:49;;;;;;;4.68;2.63;;;;;;;1.38;100.00;99764.09;6250026;22;20649;-70
2023/03/06 04:33:19;;;;;;;4.85;3.20;;;;;;;1.34;100.00;99766.28;6249813;22;20183;-72
2023/03/06 04:35:49;;;;;;;4.38;3.03;;;;;;;1.21;100.00;99766.00;6250215;22;20654;-71
2023/03/06 04:38:25;;;;;;;5.18;2.85;;;;;;;1.38;100.00;99766.78;6250106;22;20262;-71
2023/03/06 04:40:53;;;;;;;4.97;3.28;;;;;;;1.43;100.00;99772.41;6249457;22;20604;-70
2023/03/06 04:43:23;;;;;;;4.22;3.55;;;;;;;1.47;100.00;99779.91;6249780;22;20175;-70
2023/03/06 04:45:53;;;;;;;4.03;2.63;;;;;;;1.43;100.00;99772.41;6249704;22;20258;-70
2023/03/06 04:48:22;;;;;;;6.20;3.10;;;;;;;1.63;100.00;99784.38;6249485;22;20219;-70
2023/03/06 04:50:51;;;;;;;6.97;2.70;;;;;;;1.62;100.00;99782.69;6277125;22;20167;-70
2023/03/06 04:53:20;;;;;;;3.33;3.03;;;;;;;1.78;100.00;99781.81;6276844;22;20824;-70
2023/03/06 04:55:49;;;;;;;3.25;2.85;;;;;;;1.55;100.00;99785.19;6249111;22;20643;-71
2023/03/06 04:58:19;;;;;;;4.25;3.00;;;;;;;1.28;100.00;99789.13;6249539;22;20208;-70
2023/03/06 05:00:48;;;;;;;2.30;1.92;;;;;;;1.11;100.00;99784.00;6249729;22;20171;-72
2023/03/06 05:03:19;;;;;;;2.65;2.00;;;;;;;1.05;100.00;99790.81;6249649;22;20171;-70
2023/03/06 05:05:48;;;;;;;3.55;2.30;;;;;;;0.90;100.00;99784.50;6249737;22;20201;-71
2023/03/06 05:08:17;;;;;;;2.20;2.00;;;;;;;0.93;100.00;99786.81;6249469;22;20218;-71
2023/03/06 05:10:53;;;;;;;2.72;2.35;;;;;;;0.83;100.00;99788.81;6249646;22;20175;-71
2023/03/06 05:13:22;;;;;;;5.88;2.70;;;;;;;0.80;100.00;99781.16;6249529;22;20190;-71
2023/03/06 05:15:51;;;;;;;2.83;2.63;;;;;;;0.79;100.00;99784.81;6249588;22;20739;-70
2023/03/06 05:18:22;;;;;;;3.30;2.90;;;;;;;0.86;100.00;99781.34;6276794;22;20655;-71
2023/03/06 05:20:51;;;;;;;4.97;2.45;;;;;;;0.77;100.00;99792.16;6250155;22;20262;-70
2023/03/06 05:23:20;;;;;;;2.92;2.35;;;;;;;0.82;100.00;99789.84;6275284;22;20249;-70
2023/03/06 05:25:49;;;;;;;4.55;2.50;;;;;;;0.96;100.00;99791.00;6275370;22;20178;-71
2023/03/06 05:28:18;;;;;;;3.45;3.15;;;;;;;0.78;100.00;99797.31;6275165;22;20237;-71
2023/03/06 05:30:47;;;;;;;2.30;2.10;;;;;;;0.81;100.00;99793.50;6276495;22;20164;-70
2023/03/06 05:33:16;;;;;;;3.55;2.33;;;;;;;0.77;100.00;99803.66;6275013;22;20210;-71
2023/03/06 05:35:48;;;;;;;2.60;2.22;;;;;;;0.75;100.00;99802.13;6275339;22;20255;-72
2023/03/06 05:38:18;;;;;;;2.55;2.35;;;;;;;0.83;100.00;99802.13;6275423;22;20488;-72
2023/03/06 05:40:47;;;;;;;3.30;2.58;;;;;;;0.85;100.00;99798.31;6274950;22;20166;-72
2023/03/06 05:43:16;;;;;;;4.65;3.20;;;;;;;0.89;100.00;99801.47;6275987;22;20774;-71
2023/03/06 05:45:45;;;;;;;2.97;2.63;;;;;;;1.00;100.00;99803.81;6277602;22;20171;-72
2023/03/06 05:48:14;;;;;;;4.00;3.13;;;;;;;0.98;100.00;99802.28;6276156;22;20214;-72
2023/03/06 05:50:43;;;;;;;4.32;2.55;;;;;;;1.02;100.00;99806.28;6275887;22;20186;-72
2023/03/06 05:53:14;;;;;;;3.08;2.75;;;;;;;1.01;100.00;99805.47;6276680;22;20183;-71
2023/03/06 05:55:43;;;;;;;2.92;1.98;;;;;;;1.04;100.00;99804.28;6277163;22;20160;-72
2023/03/06 05:58:12;;;;;;;3.47;2.95;;;;;;;0.93;100.00;99792.13;6276735;22;20222;-72
2023/03/06 06:00:41;;;;;;;7.45;3.38;;;;;;;0.83;100.00;99796.81;6275980;22;20171;-72
2023/03/06 06:03:10;;;;;;;3.20;2.33;;;;;;;0.84;100.00;99798.47;6276979;22;20162;-71
2023/03/06 06:05:40;;;;;;;3.80;2.90;;;;;;;1.03;100.00;99800.78;6279338;22;20167;-71
2023/03/06 06:08:09;;;;;;;3.92;3.15;;;;;;;1.05;100.00;99806.81;6279051;22;20194;-71
2023/03/06 06:10:39;;;;;;;5.07;3.10;;;;;;;1.09;100.00;99801.97;6279608;22;20171;-70
2023/03/06 06:13:09;;;;;;;3.53;3.22;;;;;;;0.91;100.00;99799.47;6280214;22;20206;-70
2023/03/06 06:15:38;;;;;;;3.65;3.13;;;;;;;1.01;100.00;99809.97;6283190;22;20524;-71
2023/03/06 06:18:08;;;;;;;6.65;2.95;;;;;;;1.28;100.00;99809.59;6284503;22;20184;-72
2023/03/06 06:20:41;;;;;;;4.45;2.75;;;;;;;1.19;100.00;99807.94;6278645;22;20167;-72
2023/03/06 06:23:11;;;;;;;4.30;2.50;;;;;;;1.11;100.00;99805.31;6273902;22;20202;-71
2023/03/06 06:25:42;;;;;;;4.65;2.58;;;;;;;1.27;100.00;99806.09;6275437;22;20177;-71
2023/03/06 06:28:11;;;;;;;3.88;3.10;;;;;;;1.41;100.00;99811.72;6275212;22;20533;-71
2023/03/06 06:30:40;;;;;;;6.60;4.25;;;;;;;1.26;100.00;99815.09;6278661;22;20218;-71
2023/03/06 06:33:09;;;;;;;3.60;2.22;;;;;;;1.45;100.00;99815.75;6276601;22;20522;-70
2023/03/06 06:35:38;;;;;;;5.18;3.03;;;;;;;1.44;100.00;99817.56;6278883;22;20215;-71
2023/03/06 06:38:07;;;;;;;5.00;2.97;;;;;;;1.55;100.00;99819.06;6277089;22;20195;-71
2023/03/06 06:40:37;;;;;;;4.25;2.70;;;;;;;1.24;100.00;99817.09;6275692;22;20163;-70
2023/03/06 06:43:07;;;;;;;3.30;1.95;;;;;;;1.00;100.00;99827.78;6274692;22;20167;-72
2023/03/06 06:45:37;;;;;;;2.85;1.63;;;;;;;0.94;100.00;99815.13;6274465;22;20242;-71
2023/03/06 06:48:06;;;;;;;3.80;3.05;;;;;;;0.97;100.00;99817.44;6274239;22;20264;-73
2023/03/06 06:50:35;;;;;;;4.10;2.40;;;;;;;1.02;100.00;99823.09;6275934;22;20289;-70
2023/03/06 06:53:04;;;;;;;4.38;2.83;;;;;;;0.99;100.00;99818.13;6274413;22;20187;-72
2023/03/06 06:55:33;;;;;;;2.92;1.83;;;;;;;0.97;100.00;99813.97;6274439;22;20224;-72
2023/03/06 06:58:02;;;;;;;2.90;2.00;;;;;;;1.01;100.00;99815.28;6273962;22;20191;-73
2023/03/06 07:00:32;;;;;;;2.45;1.98;;;;;;;1.06;100.00;99812.97;6279856;22;20163;-72
2023/03/06 07:03:01;;;;;;;3.72;2.25;;;;;;;0.99;100.00;99823.44;6275944;22;20175;-71
2023/03/06 07:05:42;;;;;;;3.67;2.05;;;;;;;1.11;100.00;99822.13;6274020;22;20254;-71
2023/03/06 07:08:11;;;;;;;2.63;2.03;;;;;;;1.28;100.00;99817.59;6273812;22;20210;-72
2023/03/06 07:10:40;;;;;;;3.78;1.92;;;;;;;1.24;100.00;99822.44;6273838;22;20250;-72
2023/03/06 07:13:35;;;;;;;1.92;1.50;;;;;;;1.04;100.00;99813.13;6273867;22;20183;-71
2023/03/06 07:16:07;;;;;;;4.22;2.08;;;;;;;1.07;100.00;99823.44;6274148;22;20159;-72
2023/03/06 07:18:36;;;;;;;3.78;2.83;;;;;;;1.18;100.00;99828.44;6273761;22;20674;-71
2023/03/06 07:21:06;;;;;;;3.75;2.45;;;;;;;1.19;100.00;99824.78;6273514;22;20203;-70
2023/03/06 07:23:35;;;;;;;3.65;2.65;;;;;;;1.29;100.00;99820.09;6275347;22;20499;-71
2023/03/06 07:26:04;;;;;;;2.97;2.67;;;;;;;1.43;100.00;99829.25;6248174;22;20195;-71
2023/03/06 07:28:34;;;;;;;3.20;2.38;;;;;;;1.58;100.00;99819.53;6275084;22;20202;-71
2023/03/06 07:31:22;;;;;;;2.75;2.55;;;;;;;1.55;100.00;99824.41;6247955;22;20170;-71
2023/03/06 07:33:52;;;;;;;3.60;2.05;;;;;;;1.56;99.90;99826.03;6248004;22;20183;-72
2023/03/06 07:36:22;;;;;;;4.55;3.20;;;;;;;1.40;98.50;99831.41;6253558;22;20182;-72
2023/03/06 07:38:51;;;;;;;2.75;2.10;;;;;;;1.44;98.62;99827.41;6252273;22;20223;-72
2023/03/06 07:41:20;;;;;;;4.40;3.65;;;;;;;1.64;99.07;99831.38;6252707;22;20174;-72
2023/03/06 07:43:50;;;;;;;3.10;2.60;;;;;;;1.62;98.72;99825.34;6248275;22;20155;-72
2023/03/06 07:46:21;;;;;;;7.47;5.20;;;;;;;1.59;97.53;99823.03;6247588;22;20178;-71
2023/03/06 07:48:50;;;;;;;4.95;3.78;;;;;;;1.64;96.57;99823.38;6247922;22;20191;-72
2023/03/06 07:51:21;;;;;;;2.53;2.33;;;;;;;1.61;96.10;99821.84;6248487;22;20172;-71
2023/03/06 07:53:51;;;;;;;2.95;2.25;;;;;;;1.77;96.46;99823.66;6263909;22;20183;-73
2023/03/06 07:56:19;;;;;;;2.53;2.33;;;;;;;1.79;95.56;99821.66;6261408;22;20171;-71
2023/03/06 07:58:49;;;;;;;2.83;2.05;;;;;;;1.94;95.47;99819.91;6259580;22;20563;-72
2023/03/06 08:01:22;;;;;;;2.38;1.90;;;;;;;2.00;95.57;99824.56;6278804;22;20516;-72
2023/03/06 08:03:51;;;;;;;4.30;2.80;;;;;;;2.15;94.78;99828.16;6248221;22;20612;-71
2023/03/06 08:06:22;;;;;;;2.75;2.28;;;;;;;2.36;94.43;99826.75;6248155;22;20210;-70
2023/03/06 08:08:56;;;;;;;2.95;2.47;;;;;;;2.22;92.42;99827.47;6248043;22;20187;-70
2023/03/06 08:11:27;;;;;;;1.80;1.50;;;;;;;2.13;90.91;99830.16;6247949;22;20662;-71
2023/03/06 08:13:57;;;;;;;2.80;2.10;;;;;;;2.19;92.61;99829.47;6247630;22;20168;-70
2023/03/06 08:16:29;;;;;;;3.60;1.90;;;;;;;2.34;91.71;99831.41;6247780;22;20171;-71
2023/03/06 08:18:58;;;;;;;4.75;2.17;;;;;;;2.46;92.57;99825.50;6248656;22;20558;-73
2023/03/06 08:21:28;;;;;;;3.65;2.08;;;;;;;2.56;92.73;99819.94;6251067;22;20609;-72
2023/03/06 08:23:58;;;;;;;5.05;2.80;;;;;;;2.70;91.82;99827.19;6274200;22;20649;-74
2023/03/06 08:26:43;;;;;;;4.18;2.22;;;;;;;2.61;91.39;99829.06;6274055;22;20198;-71
2023/03/06 08:29:12;;;;;;;4.18;3.10;;;;;;;2.69;91.90;99828.19;6274755;22;20164;-73
2023/03/06 08:31:44;;;;;;;3.35;2.17;;;;;;;2.58;90.95;99820.59;6275804;22;20206;-72
2023/03/06 08:34:14;;;;;;;2.22;1.90;;;;;;;2.74;90.95;99839.19;6275786;22;20184;-73
2023/03/06 08:36:44;;;;;;;2.55;2.00;;;;;;;2.60;90.48;99837.28;6276052;22;20274;-72
2023/03/06 08:39:14;;;;;;;4.00;2.58;;;;;;;2.76;90.50;99834.47;6279015;22;20199;-71
2023/03/06 08:41:43;;;;;;;2.33;1.65;;;;;;;2.59;90.12;99835.59;6275650;22;20164;-72
2023/03/06 08:44:12;;;;;;;7.20;3.20;;;;;;;2.68;89.93;99837.22;6275836;22;20238;-72
2023/03/06 08:46:46;;;;;;;5.97;3.10;;;;;;;2.87;88.95;99839.41;6275054;22;20522;-72
2023/03/06 08:49:15;;;;;;;3.60;2.50;;;;;;;2.75;89.29;99840.84;6275497;22;20561;-71
2023/03/06 08:51:44;;;;;;;4.28;2.20;;;;;;;2.81;89.81;99834.78;6277652;22;20168;-71
2023/03/06 08:54:14;;;;;;;5.70;2.53;;;;;;;2.62;88.19;99840.59;6275181;22;20188;-73
2023/03/06 08:56:43;;;;;;;4.88;2.20;;;;;;;2.81;89.09;99840.13;6277640;22;20487;-71
2023/03/06 08:59:12;;;;;;;2.78;2.17;;;;;;;2.90;89.20;99849.78;6274828;22;20167;-72
2023/03/06 09:01:41;;;;;;;4.32;2.40;;;;;;;3.01;88.42;99849.31;6274764;22;20174;-71
2023/03/06 09:04:12;;;;;;;4.15;2.70;;;;;;;3.10;86.76;99847.41;6274935;22;20167;-73
2023/03/06 09:06:42;;;;;;;6.75;2.70;;;;;;;2.92;86.47;99855.75;6275143;22;20640;-71
2023/03/06 09:09:13;;;;;;;3.90;2.50;;;;;;;2.83;85.52;99854.16;6275039;22;20600;-72
2023/03/06 09:11:41;;;;;;;3.55;2.13;;;;;;;2.99;85.28;99847.84;6274828;22;20676;-71
2023/03/06 09:14:11;;;;;;;3.53;2.42;;;;;;;2.80;84.44;99854.50;6274844;22;20262;-72
2023/03/06 09:16:40;;;;;;;3.53;2.45;;;;;;;2.80;84.75;99849.16;6274981;22;20167;-72
2023/03/06 09:19:10;;;;;;;2.38;2.17;;;;;;;2.74;84.91;99849.03;6275230;22;20538;-72
2023/03/06 09:21:40;;;;;;;2.78;2.05;;;;;;;2.76;83.58;99849.69;6274697;22;20263;-71
2023/03/06 09:24:09;;;;;;;6.78;2.75;;;;;;;2.75;83.13;99854.22;6274705;22;20191;-71
2023/03/06 09:26:40;;;;;;;3.35;2.35;;;;;;;2.85;82.56;99852.13;6274972;22;20173;-72
2023/03/06 09:29:16;;;;;;;2.40;1.90;;;;;;;2.75;83.76;99853.38;6274579;22;20167;-72
2023/03/06 09:31:45;;;;;;;7.57;3.22;;;;;;;2.98;84.13;99852.38;6274225;22;20267;-71
2023/03/06 09:34:41;;;;;;;2.47;1.67;;;;;;;3.07;83.22;99855.81;6274221;22;20184;-71
2023/03/06 09:37:10;;;;;;;3.85;2.38;;;;;;;2.88;81.57;99857.13;6274285;22;20191;-71
2023/03/06 09:39:40;;;;;;;2.90;2.08;;;;;;;2.98;83.84;99854.22;6274306;22;20199;-71
2023/03/06 09:42:13;;;;;;;2.83;1.85;;;;;;;2.96;82.34;99859.72;6300176;22;20225;-70
2023/03/06 09:44:45;;;;;;;2.80;2.38;;;;;;;2.97;83.22;99856.03;6274370;22;20160;-70
2023/03/06 09:47:45;;;;;;;10.35;3.88;;;;;;;3.13;81.95;99855.09;6275048;22;20195;-71
2023/03/06 09:50:37;;;;;;;27.90;12.23;;;;;;;3.22;81.35;99848.66;6274571;22;20247;-72
2023/03/06 09:53:32;;;;;;;33.17;16.35;;;;;;;3.26;81.73;99851.81;6274105;22;20210;-71
2023/03/06 09:56:05;;;;;;;25.55;12.05;;;;;;;3.33;79.71;99860.78;6273895;22;20191;-70
2023/03/06 09:58:40;;;;;;;8.07;5.05;;;;;;;2.94;80.16;99858.25;6275103;22;20337;-71
2023/03/06 10:01:16;;;;;;;8.48;4.32;;;;;;;2.98;81.01;99852.38;6274673;22;20213;-71
2023/03/06 10:03:49;;;;;;;5.10;3.90;;;;;;;2.94;80.08;99852.91;6275002;22;20167;-71
2023/03/06 10:06:26;;;;;;;4.80;2.85;;;;;;;3.12;81.52;99852.59;6274947;22;20195;-70
2023/03/06 10:09:00;;;;;;;4.68;2.70;;;;;;;3.01;81.57;99861.84;6275396;22;20164;-69
2023/03/06 10:11:38;;;;;;;3.65;2.83;;;;;;;3.11;80.65;99858.94;6276470;22;20201;-70
2023/03/06 10:14:17;;;;;;;2.40;1.92;;;;;;;2.94;79.75;99861.75;6274741;22;20163;-71
2023/03/06 10:16:46;;;;;;;3.13;2.40;;;;;;;3.03;79.89;99860.69;6275162;22;20593;-71
2023/03/06 10:19:19;;;;;;;4.80;2.80;;;;;;;3.11;80.62;99865.13;6274047;22;20194;-70
2023/03/06 10:21:57;;;;;;;4.28;2.45;;;;;;;3.18;78.86;99863.41;6274274;22;20193;-70
2023/03/06 10:24:42;;;;;;;6.88;2.95;;;;;;;3.14;79.49;99851.41;6274369;22;20160;-71
2023/03/06 10:27:24;;;;;;;2.17;1.85;;;;;;;3.16;79.94;99854.72;6274479;22;20194;-71
2023/03/06 10:30:01;;;;;;;3.83;1.90;;;;;;;3.32;78.03;99864.47;6274711;22;20164;-71
2023/03/06 10:32:40;;;;;;;2.95;2.35;;;;;;;3.35;78.59;99864.09;6274618;22;20170;-69
2023/03/06 10:35:22;;;;;;;4.10;2.97;;;;;;;3.37;79.17;99857.56;6277066;22;20195;-72
2023/03/06 10:38:11;;;;;;;2.92;2.00;;;;;;;3.47;78.50;99851.94;6274617;22;20213;-70
2023/03/06 10:40:47;;;;;;;3.35;2.05;;;;;;;3.50;77.49;99857.75;6274935;22;20164;-70
2023/03/06 10:43:16;;;;;;;2.42;1.90;;;;;;;3.60;78.66;99860.19;6276403;22;20174;-70
2023/03/06 10:45:50;;;;;;;2.50;1.95;;;;;;;3.26;80.05;99859.81;6274336;22;20628;-71
2023/03/06 10:48:22;;;;;;;1.95;1.60;;;;;;;2.81;82.81;99850.00;6273708;22;20712;-71
2023/03/06 10:50:53;;;;;;;5.82;2.25;;;;;;;3.12;83.58;99852.59;6273953;22;20156;-71
2023/03/06 10:53:28;;;;;;;3.00;1.83;;;;;;;3.49;82.71;99856.09;6273337;22;20665;-71
2023/03/06 10:55:59;;;;;;;4.25;2.50;;;;;;;3.65;81.61;99852.44;6276131;22;20167;-69
2023/03/06 10:58:30;;;;;;;2.15;1.67;;;;;;;3.55;80.70;99859.88;6276877;22;20192;-69
2023/03/06 11:01:55;;;;;;;3.53;2.10;;;;;;;3.45;81.04;99848.63;6274239;22;20242;-72
2023/03/06 11:04:27;;;;;;;5.88;3.15;;;;;;;3.42;81.22;99849.81;6273671;22;20587;-71
2023/03/06 11:07:18;;;;;;;2.95;2.25;;;;;;;3.24;82.11;99856.50;6273576;22;20191;-71
2023/03/06 11:10:01;;;;;;;2.20;1.95;;;;;;;2.96;82.90;99854.38;6273725;22;20192;-70
2023/03/06 11:12:32;;;;;;;3.15;1.95;;;;;;;3.08;83.61;99853.97;6273539;22;20168;-70
2023/03/06 11:15:21;;;;;;;2.65;1.50;;;;;;;3.39;81.71;99849.34;6273720;22;20179;-71
2023/03/06 11:17:53;;;;;;;3.60;2.30;;;;;;;3.56;81.75;99856.22;6274152;22;20188;-70
2023/03/06 11:20:25;;;;;;;5.82;3.03;;;;;;;3.58;82.24;99851.53;6275342;22;20163;-70
2023/03/06 11:22:59;;;;;;;4.30;2.45;;;;;;;3.67;80.28;99853.09;6273994;22;20620;-70
2023/03/06 11:25:37;;;;;;;2.55;2.03;;;;;;;3.55;79.27;99848.34;6248564;22;20164;-70
2023/03/06 11:28:13;;;;;;;2.80;2.20;;;;;;;3.67;79.47;99846.91;6275200;22;20183;-71
2023/03/06 11:30:46;;;;;;;3.83;2.00;;;;;;;3.69;79.21;99845.69;6274090;22;20187;-69
2023/03/06 11:33:28;;;;;;;3.38;2.13;;;;;;;3.86;79.27;99836.50;6273434;22;20194;-72
2023/03/06 11:36:04;;;;;;;2.70;2.45;;;;;;;4.14;79.14;99835.81;6273252;22;20510;-71
2023/03/06 11:39:29;;;;;;;2.10;1.42;;;;;;;4.06;77.41;99835.94;6274657;22;20246;-70
2023/03/06 11:42:09;;;;;;;2.65;2.20;;;;;;;4.11;77.67;99834.38;6273362;22;20251;-70
2023/03/06 11:44:51;;;;;;;4.30;2.08;;;;;;;4.56;77.19;99832.41;6273363;22;20242;-70
2023/03/06 11:47:25;;;;;;;6.00;3.28;;;;;;;4.49;76.79;99831.53;6273359;22;20274;-70
2023/03/06 11:50:05;;;;;;;8.55;3.05;;;;;;;4.53;75.32;99836.31;6273582;22;20184;-70
2023/03/06 11:52:45;;;;;;;5.00;2.60;;;;;;;4.26;74.88;99831.66;6273508;22;20168;-70
2023/03/06 11:55:24;;;;;;;2.20;1.50;;;;;;;4.41;74.07;99832.44;6273527;22;20187;-71
2023/03/06 11:58:09;;;;;;;3.45;2.50;;;;;;;4.47;74.09;99834.38;6273315;22;20598;-71
2023/03/06 12:00:48;;;;;;;8.00;3.00;;;;;;;4.00;75.41;99832.16;6273599;22;20239;-71